Terminal Aerodrome Forecast
Issued by NWS Wilmington, NC

Home | Current Version | Previous Version | Text Only | Print | Product List | Glossary On
Versions: 1 2 3 4 5 6 7 8 9 10 11 12 13 14 15 16 17 18
000
FTUS42 KILM 060821 AAA
TAFLBT
TAF AMD
KLBT 060821Z 0608/0706 30006KT P6SM BKN015 OVC050
     FM061330 31010G15KT P6SM VCSH BKN050 OVC120
     FM061700 31012G18KT P6SM VCTS SCT035CB BKN060 OVC090
     FM070000 29005KT P6SM SCT050 BKN100=

USA.gov is the U.S. government's official web portal to all federal, state and local government web resources and services.